VCL weather

Chu Lai International Airport
Dung Quat Bay, Quang Ngai Province, Vietnam

Public forecast

Using degrees Celsius for public forecast. Weather courtesy of forecast.io.

Closest aviation weather report (METAR) to Chu Lai International Airport

Closest report is Da Nang International Airport, 48.4 nm (89.5 km) NW. Retrieved 2019/10/22 13:30 UTC (1 hour ago):

VVDN 221330Z 12003KT 090V170 8000 SCT013 28/23 Q1012 NOSIG

Closest aviation forecast (TAF) to Chu Lai International Airport

Closest forecast is Da Nang International Airport, 48.4 nm (89.5 km) NW. Retrieved 2019/10/22 12:36 UTC (2 hours ago):

TAF VVDN 221100Z 2212/2312 22006KT 8000 SCT013 BECMG 2221/2222 4000 BR BECMG 2300/2301 7000 NSW BECMG 2304/2305 05010KT